sensor_id;sensor_type;location;lat;lon;timestamp;temperature;humidity
42145;DHT22;27813;43.516;11.890;2022-08-21T03:24:54;16.20;89.80
42145;DHT22;27813;43.516;11.890;2022-08-21T03:29:01;16.20;89.70
42145;DHT22;27813;43.516;11.890;2022-08-21T03:33:09;16.30;89.70
42145;DHT22;27813;43.516;11.890;2022-08-21T03:37:18;16.30;89.80
42145;DHT22;27813;43.516;11.890;2022-08-21T03:41:23;16.30;89.80
42145;DHT22;27813;43.516;11.890;2022-08-21T03:45:27;16.20;89.80
42145;DHT22;27813;43.516;11.890;2022-08-21T03:49:33;16.20;90.00
42145;DHT22;27813;43.516;11.890;2022-08-21T03:53:38;16.20;90.10
42145;DHT22;27813;43.516;11.890;2022-08-21T03:57:43;16.30;90.10
42145;DHT22;27813;43.516;11.890;2022-08-21T04:01:53;16.30;90.00
42145;DHT22;27813;43.516;11.890;2022-08-21T04:05:58;16.30;90.00
42145;DHT22;27813;43.516;11.890;2022-08-21T04:10:04;16.30;90.10
42145;DHT22;27813;43.516;11.890;2022-08-21T04:14:09;16.20;90.10
42145;DHT22;27813;43.516;11.890;2022-08-21T04:18:14;16.20;90.20
42145;DHT22;27813;43.516;11.890;2022-08-21T04:22:18;16.20;90.30
42145;DHT22;27813;43.516;11.890;2022-08-21T04:26:23;16.20;90.30
42145;DHT22;27813;43.516;11.890;2022-08-21T04:30:28;16.20;90.30
42145;DHT22;27813;43.516;11.890;2022-08-21T04:34:32;16.20;90.40
42145;DHT22;27813;43.516;11.890;2022-08-21T04:38:37;16.20;90.30
42145;DHT22;27813;43.516;11.890;2022-08-21T04:42:50;16.30;90.40
42145;DHT22;27813;43.516;11.890;2022-08-21T04:46:54;16.20;90.30
42145;DHT22;27813;43.516;11.890;2022-08-21T04:55:10;16.30;90.40
42145;DHT22;27813;43.516;11.890;2022-08-21T04:59:18;16.40;90.30
42145;DHT22;27813;43.516;11.890;2022-08-21T05:03:23;16.40;90.20
42145;DHT22;27813;43.516;11.890;2022-08-21T05:07:30;16.50;90.20
42145;DHT22;27813;43.516;11.890;2022-08-21T05:11:46;16.70;90.60
42145;DHT22;27813;43.516;11.890;2022-08-21T05:15:52;17.90;88.50
42145;DHT22;27813;43.516;11.890;2022-08-21T05:20:00;19.20;84.80
42145;DHT22;27813;43.516;11.890;2022-08-21T05:24:06;20.30;81.80
42145;DHT22;27813;43.516;11.890;2022-08-21T05:28:11;21.20;79.30
42145;DHT22;27813;43.516;11.890;2022-08-21T05:32:17;22.00;77.40
42145;DHT22;27813;43.516;11.890;2022-08-21T05:36:22;22.50;76.20
42145;DHT22;27813;43.516;11.890;2022-08-21T05:40:26;23.10;74.90
42145;DHT22;27813;43.516;11.890;2022-08-21T05:44:32;23.60;73.70
42145;DHT22;27813;43.516;11.890;2022-08-21T05:48:37;24.10;72.80
42145;DHT22;27813;43.516;11.890;2022-08-21T05:52:42;24.60;71.90
42145;DHT22;27813;43.516;11.890;2022-08-21T05:56:46;25.10;70.90
42145;DHT22;27813;43.516;11.890;2022-08-21T06:00:52;25.70;69.90
42145;DHT22;27813;43.516;11.890;2022-08-21T06:04:57;26.30;68.70
42145;DHT22;27813;43.516;11.890;2022-08-21T06:09:01;26.90;67.60
42145;DHT22;27813;43.516;11.890;2022-08-21T06:13:08;27.40;66.60
42145;DHT22;27813;43.516;11.890;2022-08-21T06:17:13;28.00;65.80
42145;DHT22;27813;43.516;11.890;2022-08-21T06:21:19;28.40;65.00
42145;DHT22;27813;43.516;11.890;2022-08-21T06:25:24;28.80;64.20
42145;DHT22;27813;43.516;11.890;2022-08-21T06:29:29;29.10;63.70
42145;DHT22;27813;43.516;11.890;2022-08-21T06:33:47;29.50;63.00
42145;DHT22;27813;43.516;11.890;2022-08-21T06:37:52;29.80;62.30
42145;DHT22;27813;43.516;11.890;2022-08-21T06:41:57;30.20;61.60
42145;DHT22;27813;43.516;11.890;2022-08-21T06:46:04;30.50;60.70
42145;DHT22;27813;43.516;11.890;2022-08-21T06:50:09;30.60;59.80
42145;DHT22;27813;43.516;11.890;2022-08-21T06:54:14;29.60;61.70
42145;DHT22;27813;43.516;11.890;2022-08-21T06:58:19;28.10;65.40
42145;DHT22;27813;43.516;11.890;2022-08-21T07:02:24;26.90;68.60
42145;DHT22;27813;43.516;11.890;2022-08-21T07:06:28;26.10;70.70
42145;DHT22;27813;43.516;11.890;2022-08-21T07:10:36;25.50;72.00
42145;DHT22;27813;43.516;11.890;2022-08-21T07:14:40;25.10;72.80
42145;DHT22;27813;43.516;11.890;2022-08-21T07:18:46;24.90;73.30
42145;DHT22;27813;43.516;11.890;2022-08-21T07:22:50;24.70;73.90
42145;DHT22;27813;43.516;11.890;2022-08-21T07:26:55;24.60;74.00
42145;DHT22;27813;43.516;11.890;2022-08-21T07:31:01;24.50;74.10
42145;DHT22;27813;43.516;11.890;2022-08-21T07:35:07;24.50;74.10
42145;DHT22;27813;43.516;11.890;2022-08-21T07:39:12;24.50;74.20
42145;DHT22;27813;43.516;11.890;2022-08-21T07:43:16;24.40;74.00
42145;DHT22;27813;43.516;11.890;2022-08-21T07:47:22;24.30;74.10
42145;DHT22;27813;43.516;11.890;2022-08-21T07:51:45;24.20;74.30
42145;DHT22;27813;43.516;11.890;2022-08-21T07:55:50;24.20;74.30
42145;DHT22;27813;43.516;11.890;2022-08-21T07:59:56;24.20;74.40
42145;DHT22;27813;43.516;11.890;2022-08-21T08:04:00;24.20;74.30
42145;DHT22;27813;43.516;11.890;2022-08-21T08:08:06;24.30;74.30
42145;DHT22;27813;43.516;11.890;2022-08-21T08:12:10;24.30;74.40
42145;DHT22;27813;43.516;11.890;2022-08-21T08:16:16;24.40;74.30
42145;DHT22;27813;43.516;11.890;2022-08-21T08:20:21;24.50;74.10
42145;DHT22;27813;43.516;11.890;2022-08-21T08:24:27;24.50;74.00
42145;DHT22;27813;43.516;11.890;2022-08-21T08:28:32;24.50;73.90
42145;DHT22;27813;43.516;11.890;2022-08-21T08:32:37;24.50;73.90
42145;DHT22;27813;43.516;11.890;2022-08-21T08:36:42;24.60;73.90
42145;DHT22;27813;43.516;11.890;2022-08-21T08:41:06;24.60;73.80
42145;DHT22;27813;43.516;11.890;2022-08-21T08:45:16;24.70;73.80
42145;DHT22;27813;43.516;11.890;2022-08-21T08:49:58;24.80;73.70
42145;DHT22;27813;43.516;11.890;2022-08-21T08:55:11;25.00;73.60
42145;DHT22;27813;43.516;11.890;2022-08-21T08:59:20;25.00;73.40
42145;DHT22;27813;43.516;11.890;2022-08-21T09:03:28;25.10;73.30
42145;DHT22;27813;43.516;11.890;2022-08-21T09:08:09;25.20;73.30
42145;DHT22;27813;43.516;11.890;2022-08-21T09:12:49;25.30;73.20
42145;DHT22;27813;43.516;11.890;2022-08-21T09:21:28;25.50;72.90
42145;DHT22;27813;43.516;11.890;2022-08-21T09:26:02;25.50;72.70
42145;DHT22;27813;43.516;11.890;2022-08-21T09:30:32;25.60;72.70
42145;DHT22;27813;43.516;11.890;2022-08-21T09:34:36;25.80;72.30
42145;DHT22;27813;43.516;11.890;2022-08-21T09:39:09;25.90;72.10
42145;DHT22;27813;43.516;11.890;2022-08-21T09:43:20;26.10;71.90
42145;DHT22;27813;43.516;11.890;2022-08-21T09:47:28;26.20;71.60
42145;DHT22;27813;43.516;11.890;2022-08-21T09:51:36;26.50;71.30
42145;DHT22;27813;43.516;11.890;2022-08-21T09:55:51;26.80;71.00
42145;DHT22;27813;43.516;11.890;2022-08-21T10:00:31;27.30;70.40
42145;DHT22;27813;43.516;11.890;2022-08-21T10:04:37;28.10;69.20
42145;DHT22;27813;43.516;11.890;2022-08-21T10:08:42;29.50;65.70
42145;DHT22;27813;43.516;11.890;2022-08-21T10:17:17;32.80;56.50
42145;DHT22;27813;43.516;11.890;2022-08-21T10:21:36;33.90;54.00
42145;DHT22;27813;43.516;11.890;2022-08-21T10:30:38;35.20;50.30
42145;DHT22;27813;43.516;11.890;2022-08-21T10:35:04;35.70;49.30
42145;DHT22;27813;43.516;11.890;2022-08-21T10:48:02;36.10;46.70
42145;DHT22;27813;43.516;11.890;2022-08-21T10:56:40;36.50;45.50
42145;DHT22;27813;43.516;11.890;2022-08-21T11:00:51;36.70;45.70
42145;DHT22;27813;43.516;11.890;2022-08-21T11:09:17;36.50;45.70
42145;DHT22;27813;43.516;11.890;2022-08-21T11:13:38;35.90;46.60
42145;DHT22;27813;43.516;11.890;2022-08-21T11:17:54;35.00;48.00
42145;DHT22;27813;43.516;11.890;2022-08-21T11:31:17;33.50;51.10
42145;DHT22;27813;43.516;11.890;2022-08-21T11:36:02;33.30;51.30
42145;DHT22;27813;43.516;11.890;2022-08-21T11:49:43;33.50;51.10
42145;DHT22;27813;43.516;11.890;2022-08-21T11:54:03;33.70;50.00
42145;DHT22;27813;43.516;11.890;2022-08-21T11:58:17;34.00;49.50
42145;DHT22;27813;43.516;11.890;2022-08-21T12:02:53;34.30;49.10
42145;DHT22;27813;43.516;11.890;2022-08-21T12:07:28;34.60;47.50
42145;DHT22;27813;43.516;11.890;2022-08-21T12:11:47;34.60;47.50
42145;DHT22;27813;43.516;11.890;2022-08-21T12:16:27;34.60;47.60
42145;DHT22;27813;43.516;11.890;2022-08-21T12:20:34;34.80;47.60
42145;DHT22;27813;43.516;11.890;2022-08-21T12:24:41;35.00;47.50
42145;DHT22;27813;43.516;11.890;2022-08-21T12:28:47;35.00;47.20
42145;DHT22;27813;43.516;11.890;2022-08-21T12:33:50;35.00;47.00
42145;DHT22;27813;43.516;11.890;2022-08-21T12:37:39;35.20;46.50
42145;DHT22;27813;43.516;11.890;2022-08-21T12:42:06;35.10;46.30
42145;DHT22;27813;43.516;11.890;2022-08-21T12:46:26;35.20;45.60
42145;DHT22;27813;43.516;11.890;2022-08-21T12:50:42;34.60;45.00
42145;DHT22;27813;43.516;11.890;2022-08-21T12:54:52;33.90;45.80
42145;DHT22;27813;43.516;11.890;2022-08-21T12:59:02;33.20;46.70
42145;DHT22;27813;43.516;11.890;2022-08-21T13:03:09;32.60;47.80
42145;DHT22;27813;43.516;11.890;2022-08-21T13:07:28;32.10;48.70
42145;DHT22;27813;43.516;11.890;2022-08-21T13:11:33;31.60;49.30
42145;DHT22;27813;43.516;11.890;2022-08-21T13:15:43;31.00;49.90
42145;DHT22;27813;43.516;11.890;2022-08-21T13:19:56;30.30;49.60
42145;DHT22;27813;43.516;11.890;2022-08-21T13:24:34;29.50;50.20
42145;DHT22;27813;43.516;11.890;2022-08-21T13:28:49;28.90;51.70
42145;DHT22;27813;43.516;11.890;2022-08-21T13:33:01;28.50;52.70
42145;DHT22;27813;43.516;11.890;2022-08-21T13:37:08;28.20;53.10
42145;DHT22;27813;43.516;11.890;2022-08-21T13:41:32;27.90;54.00
42145;DHT22;27813;43.516;11.890;2022-08-21T13:45:49;27.50;55.10
42145;DHT22;27813;43.516;11.890;2022-08-21T13:49:54;27.40;55.70
42145;DHT22;27813;43.516;11.890;2022-08-21T13:54:13;27.50;55.60
42145;DHT22;27813;43.516;11.890;2022-08-21T13:58:30;28.00;55.00
42145;DHT22;27813;43.516;11.890;2022-08-21T14:02:40;28.20;54.50
42145;DHT22;27813;43.516;11.890;2022-08-21T14:06:46;28.30;54.20
42145;DHT22;27813;43.516;11.890;2022-08-21T14:10:52;28.10;53.90
42145;DHT22;27813;43.516;11.890;2022-08-21T14:15:02;27.80;54.70
42145;DHT22;27813;43.516;11.890;2022-08-21T14:19:22;27.40;55.80
42145;DHT22;27813;43.516;11.890;2022-08-21T14:23:29;27.00;56.70
42145;DHT22;27813;43.516;11.890;2022-08-21T14:27:38;26.80;56.90
42145;DHT22;27813;43.516;11.890;2022-08-21T14:31:59;26.60;56.90
42145;DHT22;27813;43.516;11.890;2022-08-21T14:36:07;26.50;57.30
42145;DHT22;27813;43.516;11.890;2022-08-21T14:40:13;26.40;58.00
42145;DHT22;27813;43.516;11.890;2022-08-21T14:44:19;26.20;59.10
42145;DHT22;27813;43.516;11.890;2022-08-21T14:48:24;26.00;59.80
42145;DHT22;27813;43.516;11.890;2022-08-21T14:52:31;26.00;60.10
42145;DHT22;27813;43.516;11.890;2022-08-21T14:56:37;26.00;59.90
42145;DHT22;27813;43.516;11.890;2022-08-21T15:00:43;26.00;60.20
42145;DHT22;27813;43.516;11.890;2022-08-21T15:04:48;26.00;60.60
42145;DHT22;27813;43.516;11.890;2022-08-21T15:08:54;26.00;60.60
42145;DHT22;27813;43.516;11.890;2022-08-21T15:13:01;26.00;60.70
42145;DHT22;27813;43.516;11.890;2022-08-21T15:17:10;26.00;61.00
42145;DHT22;27813;43.516;11.890;2022-08-21T15:21:19;26.00;61.40
42145;DHT22;27813;43.516;11.890;2022-08-21T15:25:25;26.00;61.70
42145;DHT22;27813;43.516;11.890;2022-08-21T15:29:31;26.00;62.10
42145;DHT22;27813;43.516;11.890;2022-08-21T15:33:36;26.00;62.50
42145;DHT22;27813;43.516;11.890;2022-08-21T15:37:40;26.00;63.00
42145;DHT22;27813;43.516;11.890;2022-08-21T15:41:47;26.00;63.30
42145;DHT22;27813;43.516;11.890;2022-08-21T15:45:52;26.10;63.30
42145;DHT22;27813;43.516;11.890;2022-08-21T15:49:57;26.30;63.30
42145;DHT22;27813;43.516;11.890;2022-08-21T15:54:03;26.60;62.80
42145;DHT22;27813;43.516;11.890;2022-08-21T15:58:16;27.00;61.80
42145;DHT22;27813;43.516;11.890;2022-08-21T16:02:29;27.20;60.90
42145;DHT22;27813;43.516;11.890;2022-08-21T16:06:35;27.20;60.90
42145;DHT22;27813;43.516;11.890;2022-08-21T16:11:00;27.20;61.00
42145;DHT22;27813;43.516;11.890;2022-08-21T16:15:11;27.00;60.70
42145;DHT22;27813;43.516;11.890;2022-08-21T16:19:26;27.00;60.90
42145;DHT22;27813;43.516;11.890;2022-08-21T16:23:34;26.80;61.00
42145;DHT22;27813;43.516;11.890;2022-08-21T16:27:46;26.60;61.20
42145;DHT22;27813;43.516;11.890;2022-08-21T16:31:51;26.60;61.40
42145;DHT22;27813;43.516;11.890;2022-08-21T16:35:56;26.60;61.30
42145;DHT22;27813;43.516;11.890;2022-08-21T16:40:00;26.50;61.40
42145;DHT22;27813;43.516;11.890;2022-08-21T16:44:06;26.40;61.60
42145;DHT22;27813;43.516;11.890;2022-08-21T16:48:14;26.10;62.20
42145;DHT22;27813;43.516;11.890;2022-08-21T16:52:19;26.00;62.80
42145;DHT22;27813;43.516;11.890;2022-08-21T16:56:25;25.90;63.30
42145;DHT22;27813;43.516;11.890;2022-08-21T17:00:31;25.70;63.70
42145;DHT22;27813;43.516;11.890;2022-08-21T17:04:36;25.60;64.20
42145;DHT22;27813;43.516;11.890;2022-08-21T17:08:41;25.50;64.80
42145;DHT22;27813;43.516;11.890;2022-08-21T17:12:52;25.20;65.40
42145;DHT22;27813;43.516;11.890;2022-08-21T17:17:01;25.10;66.20
42145;DHT22;27813;43.516;11.890;2022-08-21T17:21:09;25.00;66.90
42145;DHT22;27813;43.516;11.890;2022-08-21T17:25:22;24.80;67.50
42145;DHT22;27813;43.516;11.890;2022-08-21T17:29:33;24.70;68.00
42145;DHT22;27813;43.516;11.890;2022-08-21T17:33:43;24.60;68.50
42145;DHT22;27813;43.516;11.890;2022-08-21T17:37:55;24.50;68.80
42145;DHT22;27813;43.516;11.890;2022-08-21T17:42:05;24.50;69.40
42145;DHT22;27813;43.516;11.890;2022-08-21T17:46:19;24.40;69.80
42145;DHT22;27813;43.516;11.890;2022-08-21T17:50:24;24.30;70.10
42145;DHT22;27813;43.516;11.890;2022-08-21T17:54:29;24.20;70.40
42145;DHT22;27813;43.516;11.890;2022-08-21T17:58:34;24.00;70.70
42145;DHT22;27813;43.516;11.890;2022-08-21T18:02:40;23.80;71.20
42145;DHT22;27813;43.516;11.890;2022-08-21T18:06:47;23.60;71.80
42145;DHT22;27813;43.516;11.890;2022-08-21T18:10:53;23.30;72.50
42145;DHT22;27813;43.516;11.890;2022-08-21T18:14:59;23.10;73.00
42145;DHT22;27813;43.516;11.890;2022-08-21T18:19:09;22.90;73.60
42145;DHT22;27813;43.516;11.890;2022-08-21T18:23:19;22.60;74.30
42145;DHT22;27813;43.516;11.890;2022-08-21T18:27:44;22.40;75.00
42145;DHT22;27813;43.516;11.890;2022-08-21T18:31:51;22.20;75.50
42145;DHT22;27813;43.516;11.890;2022-08-21T18:35:55;22.00;76.10
42145;DHT22;27813;43.516;11.890;2022-08-21T18:40:00;21.90;76.60
42145;DHT22;27813;43.516;11.890;2022-08-21T18:44:06;21.70;76.90
42145;DHT22;27813;43.516;11.890;2022-08-21T18:48:14;21.50;77.10
42145;DHT22;27813;43.516;11.890;2022-08-21T18:52:20;21.40;77.40
42145;DHT22;27813;43.516;11.890;2022-08-21T18:56:24;21.20;77.70
42145;DHT22;27813;43.516;11.890;2022-08-21T19:00:36;21.10;78.00
42145;DHT22;27813;43.516;11.890;2022-08-21T19:04:47;20.90;78.30
42145;DHT22;27813;43.516;11.890;2022-08-21T19:08:56;20.80;78.80
42145;DHT22;27813;43.516;11.890;2022-08-21T19:13:10;20.60;79.20
42145;DHT22;27813;43.516;11.890;2022-08-21T19:17:18;20.50;79.30
42145;DHT22;27813;43.516;11.890;2022-08-21T19:21:26;20.30;79.60
42145;DHT22;27813;43.516;11.890;2022-08-21T19:25:37;20.20;79.90
42145;DHT22;27813;43.516;11.890;2022-08-21T19:29:50;20.20;80.20
42145;DHT22;27813;43.516;11.890;2022-08-21T19:34:04;20.10;80.20
42145;DHT22;27813;43.516;11.890;2022-08-21T19:38:12;20.00;80.40
42145;DHT22;27813;43.516;11.890;2022-08-21T19:42:20;19.80;80.60
42145;DHT22;27813;43.516;11.890;2022-08-21T19:46:36;19.70;80.80
42145;DHT22;27813;43.516;11.890;2022-08-21T19:50:44;19.60;81.00
42145;DHT22;27813;43.516;11.890;2022-08-21T19:54:54;19.50;81.10
42145;DHT22;27813;43.516;11.890;2022-08-21T19:59:04;19.50;81.30
42145;DHT22;27813;43.516;11.890;2022-08-21T20:03:30;19.30;81.40
42145;DHT22;27813;43.516;11.890;2022-08-21T20:07:38;19.10;81.50
42145;DHT22;27813;43.516;11.890;2022-08-21T20:11:52;19.00;81.80
42145;DHT22;27813;43.516;11.890;2022-08-21T20:16:07;18.90;82.10
42145;DHT22;27813;43.516;11.890;2022-08-21T20:20:12;18.90;82.20
42145;DHT22;27813;43.516;11.890;2022-08-21T20:24:19;18.80;82.30
42145;DHT22;27813;43.516;11.890;2022-08-21T20:28:31;18.80;82.30
42145;DHT22;27813;43.516;11.890;2022-08-21T20:32:44;18.80;82.40
42145;DHT22;27813;43.516;11.890;2022-08-21T20:36:52;18.80;82.50
42145;DHT22;27813;43.516;11.890;2022-08-21T20:41:05;18.90;82.20
42145;DHT22;27813;43.516;11.890;2022-08-21T20:45:34;18.90;82.00
42145;DHT22;27813;43.516;11.890;2022-08-21T20:49:46;18.80;82.20
42145;DHT22;27813;43.516;11.890;2022-08-21T20:54:22;18.70;82.40
42145;DHT22;27813;43.516;11.890;2022-08-21T20:59:01;18.60;82.50
42145;DHT22;27813;43.516;11.890;2022-08-21T21:03:32;18.50;82.50
42145;DHT22;27813;43.516;11.890;2022-08-21T21:08:03;18.50;82.80
42145;DHT22;27813;43.516;11.890;2022-08-21T21:12:34;18.50;82.80
42145;DHT22;27813;43.516;11.890;2022-08-21T21:16:54;18.50;82.80
42145;DHT22;27813;43.516;11.890;2022-08-21T21:30:04;18.40;82.90
42145;DHT22;27813;43.516;11.890;2022-08-21T21:34:17;18.40;83.10
42145;DHT22;27813;43.516;11.890;2022-08-21T21:38:41;18.20;83.30
42145;DHT22;27813;43.516;11.890;2022-08-21T21:43:06;18.20;83.40
42145;DHT22;27813;43.516;11.890;2022-08-21T21:52:03;18.00;83.80
42145;DHT22;27813;43.516;11.890;2022-08-21T21:56:37;17.90;84.00
42145;DHT22;27813;43.516;11.890;2022-08-21T22:00:50;17.90;84.20
42145;DHT22;27813;43.516;11.890;2022-08-21T22:05:08;17.70;84.30
42145;DHT22;27813;43.516;11.890;2022-08-21T22:09:40;17.70;84.50
42145;DHT22;27813;43.516;11.890;2022-08-21T22:14:05;17.70;84.60
42145;DHT22;27813;43.516;11.890;2022-08-21T22:18:20;17.60;84.70
42145;DHT22;27813;43.516;11.890;2022-08-21T22:22:29;17.50;84.70
42145;DHT22;27813;43.516;11.890;2022-08-21T22:26:40;17.50;84.80
42145;DHT22;27813;43.516;11.890;2022-08-21T22:31:09;17.50;85.00
42145;DHT22;27813;43.516;11.890;2022-08-21T22:35:20;17.50;85.20
42145;DHT22;27813;43.516;11.890;2022-08-21T22:39:32;17.50;85.20
42145;DHT22;27813;43.516;11.890;2022-08-21T22:43:54;17.60;85.20
42145;DHT22;27813;43.516;11.890;2022-08-21T22:48:05;17.50;85.10
42145;DHT22;27813;43.516;11.890;2022-08-21T22:52:27;17.60;85.10
42145;DHT22;27813;43.516;11.890;2022-08-21T22:56:45;17.50;85.10
42145;DHT22;27813;43.516;11.890;2022-08-21T23:00:57;17.40;85.30
42145;DHT22;27813;43.516;11.890;2022-08-21T23:05:16;17.30;85.50
42145;DHT22;27813;43.516;11.890;2022-08-21T23:09:35;17.30;85.60
42145;DHT22;27813;43.516;11.890;2022-08-21T23:13:46;17.20;85.70
